Time;durP1;ratioP1;P1;durP2;ratioP2;P2;SDS_P1;SDS_P2;PMS_P1;PMS_P2;Temp;Humidity;BMP_temperature;BMP_pressure;BME280_temperature;BME280_humidity;BME280_pressure;Samples;Min_cycle;Max_cycle;Signal;HPM_P1;HPM_P2
2024/03/02 00:00:20;;;;;;;5.20;3.97;;;;;;;7.07;73.20;99540.00;5052423;28;20136;-80
2024/03/02 00:02:52;;;;;;;7.55;4.18;;;;;;;7.05;73.44;99535.81;5043919;28;20052;-80
2024/03/02 00:05:25;;;;;;;5.25;3.90;;;;;;;7.05;73.53;99534.06;5048500;28;20047;-81
2024/03/02 00:07:57;;;;;;;8.65;3.83;;;;;;;7.03;73.68;99528.09;5050522;28;20045;-82
2024/03/02 00:10:29;;;;;;;5.53;4.18;;;;;;;7.01;74.14;99534.44;5035638;28;20085;-82
2024/03/02 00:12:58;;;;;;;5.47;3.97;;;;;;;6.99;73.95;99526.69;5043747;28;20284;-81
2024/03/02 00:15:42;;;;;;;5.68;3.97;;;;;;;6.97;74.09;99525.19;5049531;28;20105;-79
2024/03/02 00:18:14;;;;;;;5.30;3.95;;;;;;;7.02;73.49;99521.16;5041411;28;20187;-81
2024/03/02 00:20:44;;;;;;;3.90;3.33;;;;;;;6.99;74.20;99512.72;5043256;28;20100;-81
2024/03/02 00:23:16;;;;;;;6.75;3.90;;;;;;;6.97;74.11;99507.59;5042481;28;20049;-80
2024/03/02 00:25:45;;;;;;;4.80;3.50;;;;;;;7.05;73.88;99514.78;5043385;28;20050;-82
2024/03/02 00:28:20;;;;;;;5.97;3.90;;;;;;;7.05;73.66;99513.00;5047276;28;20041;-80
2024/03/02 00:31:11;;;;;;;5.60;3.60;;;;;;;7.16;72.91;99513.81;5039974;28;20049;-81
2024/03/02 00:33:49;;;;;;;5.40;3.40;;;;;;;7.24;72.61;99508.69;5035206;28;20080;-82
2024/03/02 00:36:34;;;;;;;5.00;3.70;;;;;;;7.33;72.29;99503.41;5048551;28;20045;-79
2024/03/02 00:39:09;;;;;;;4.57;3.60;;;;;;;7.45;71.71;99511.13;5039690;28;20064;-79
2024/03/02 00:41:36;;;;;;;5.75;3.55;;;;;;;7.49;71.80;99494.91;5040284;28;20051;-82
2024/03/02 00:44:07;;;;;;;6.70;3.40;;;;;;;7.46;71.96;99497.84;5041453;28;20138;-82
2024/03/02 00:46:35;;;;;;;6.72;3.92;;;;;;;7.47;72.11;99504.75;5041620;28;20049;-81
2024/03/02 00:49:04;;;;;;;4.15;3.50;;;;;;;7.46;71.70;99502.28;5039632;28;20103;-83
2024/03/02 00:51:35;;;;;;;7.05;3.83;;;;;;;7.48;72.03;99506.41;5040414;28;20110;-81
2024/03/02 00:54:06;;;;;;;6.85;3.72;;;;;;;7.47;71.66;99506.56;5040410;28;20415;-81
2024/03/02 00:56:36;;;;;;;6.03;3.90;;;;;;;7.41;71.90;99507.13;5044158;28;20100;-81
2024/03/02 00:59:08;;;;;;;5.63;3.80;;;;;;;7.41;72.05;99507.13;5045777;28;20049;-82
2024/03/02 01:01:35;;;;;;;5.35;3.15;;;;;;;7.24;73.19;99506.06;5047680;28;20052;-81
2024/03/02 01:04:10;;;;;;;4.60;3.50;;;;;;;7.19;73.24;99506.47;5042233;28;20049;-82
2024/03/02 01:06:41;;;;;;;5.70;3.45;;;;;;;7.27;72.97;99503.97;5039699;28;20500;-81
2024/03/02 01:09:13;;;;;;;5.60;3.53;;;;;;;7.17;73.22;99503.16;5040326;28;20050;-82
2024/03/02 01:11:40;;;;;;;6.53;3.63;;;;;;;7.12;73.06;99515.91;5039740;28;20049;-82
2024/03/02 01:14:20;;;;;;;4.18;3.20;;;;;;;7.02;73.86;99512.44;5039283;28;20204;-82
2024/03/02 01:17:23;;;;;;;5.25;3.40;;;;;;;6.99;74.22;99516.16;5039415;28;20053;-81
2024/03/02 01:23:03;;;;;;;5.78;3.80;;;;;;;6.96;73.79;99505.91;5000293;28;19946;-83
2024/03/02 01:26:32;;;;;;;5.75;3.50;;;;;;;6.94;74.29;99507.03;5035771;28;20073;-82
2024/03/02 01:29:12;;;;;;;4.40;3.50;;;;;;;7.03;74.16;99514.09;5039123;28;20069;-82
2024/03/02 01:31:45;;;;;;;5.05;3.80;;;;;;;7.10;73.14;99507.31;5041411;28;20046;-81
2024/03/02 01:34:38;;;;;;;5.70;3.65;;;;;;;7.20;72.98;99502.88;5041957;28;20063;-82
2024/03/02 01:37:13;;;;;;;;;;;;;;;7.35;72.66;99500.63;5042588;28;20054;-82
2024/03/02 01:39:54;;;;;;;4.75;3.40;;;;;;;7.34;72.79;99498.97;5040219;28;19932;-82
2024/03/02 01:45:50;;;;;;;5.32;3.50;;;;;;;7.47;71.61;99488.16;5043229;28;20132;-84
2024/03/02 01:51:55;;;;;;;4.40;3.38;;;;;;;7.44;72.36;99505.03;4962570;28;20059;-80
2024/03/02 01:55:01;;;;;;;5.15;3.42;;;;;;;7.48;71.85;99489.81;5061516;28;20053;-84
2024/03/02 03:51:57;;;;;;;6.25;3.97;;;;;;;6.89;74.69;99498.75;4940696;29;20117;-82
2024/03/02 03:58:39;;;;;;;6.43;4.13;;;;;;;6.79;75.72;99507.47;4908376;28;20108;-83
2024/03/02 04:14:51;;;;;;;6.38;4.07;;;;;;;6.51;76.34;99519.59;4886259;28;20043;-83
2024/03/02 04:18:15;;;;;;;6.05;4.15;;;;;;;6.38;77.40;99521.63;4983635;28;20077;-85
2024/03/02 04:45:10;;;;;;;7.75;5.32;;;;;;;5.93;78.63;99529.91;4937747;29;20138;-84
2024/03/02 04:48:13;;;;;;;6.70;4.82;;;;;;;5.90;79.20;99524.91;4934306;28;20055;-83
2024/03/02 04:50:54;;;;;;;5.80;4.45;;;;;;;5.86;78.91;99526.13;5000575;28;20054;-81
2024/03/02 04:53:49;;;;;;;7.18;4.93;;;;;;;5.77;79.43;99521.66;5006080;28;20073;-82
2024/03/02 04:56:49;;;;;;;7.03;4.43;;;;;;;5.70;79.82;99531.84;5002313;28;20548;-83
2024/03/02 05:06:02;;;;;;;5.85;3.97;;;;;;;5.82;78.89;99535.22;4921583;29;20062;-85
2024/03/02 05:09:11;;;;;;;6.93;4.53;;;;;;;5.93;78.53;99529.91;4941600;29;20085;-84
2024/03/02 05:15:24;;;;;;;5.28;3.75;;;;;;;6.00;78.29;99522.34;4880179;23;20198;-81
2024/03/02 05:17:50;;;;;;;7.60;4.18;;;;;;;6.08;78.20;99527.78;4985451;28;20043;-79
2024/03/02 05:20:17;;;;;;;5.90;4.07;;;;;;;6.13;78.08;99522.94;4991465;28;20050;-77
2024/03/02 05:22:44;;;;;;;7.07;4.13;;;;;;;6.25;77.61;99531.53;4989826;28;20050;-79
2024/03/02 05:25:14;;;;;;;5.93;3.97;;;;;;;6.24;77.08;99529.88;4990526;28;20086;-76
2024/03/02 05:27:40;;;;;;;4.97;3.78;;;;;;;6.23;77.50;99534.31;4992878;28;20129;-78
2024/03/02 05:30:08;;;;;;;9.80;4.47;;;;;;;6.22;77.58;99539.72;4992422;28;20538;-76
2024/03/02 05:32:35;;;;;;;5.45;3.88;;;;;;;6.21;77.36;99540.69;4991904;28;20128;-77
2024/03/02 05:35:02;;;;;;;6.93;3.83;;;;;;;6.18;77.68;99540.94;4992050;28;20047;-78
2024/03/02 05:37:29;;;;;;;4.93;3.80;;;;;;;6.16;77.79;99538.47;4993986;28;20096;-78
2024/03/02 05:39:56;;;;;;;5.43;3.70;;;;;;;6.14;78.03;99535.13;4995311;28;20057;-76
2024/03/02 05:42:24;;;;;;;4.65;3.70;;;;;;;6.14;77.32;99529.88;4991230;28;20053;-78
2024/03/02 05:44:51;;;;;;;5.70;3.80;;;;;;;6.07;78.15;99531.34;4980032;28;20126;-78
2024/03/02 05:47:17;;;;;;;4.78;3.42;;;;;;;5.94;78.69;99523.72;4990602;28;20064;-78
2024/03/02 05:49:44;;;;;;;7.30;3.97;;;;;;;5.83;78.61;99534.25;4991667;28;20042;-78
2024/03/02 05:52:11;;;;;;;6.45;3.53;;;;;;;5.75;79.30;99534.06;4992859;28;20048;-79
2024/03/02 05:54:38;;;;;;;6.50;3.72;;;;;;;5.70;79.39;99547.59;4991520;28;20057;-78
2024/03/02 05:57:22;;;;;;;6.72;3.83;;;;;;;5.68;80.08;99538.19;4991752;28;20062;-78
2024/03/02 05:59:50;;;;;;;5.00;3.70;;;;;;;5.63;80.13;99551.72;4992685;28;20445;-78
2024/03/02 06:02:16;;;;;;;6.28;4.10;;;;;;;5.66;79.92;99542.72;4994144;28;20134;-78
2024/03/02 06:04:43;;;;;;;6.07;3.60;;;;;;;5.78;79.05;99544.31;4989544;28;20469;-77
2024/03/02 06:07:10;;;;;;;8.68;4.10;;;;;;;5.89;79.03;99551.28;4994138;28;20094;-78
2024/03/02 06:09:37;;;;;;;4.70;3.70;;;;;;;5.95;78.81;99546.38;4998756;28;20050;-78
2024/03/02 06:12:04;;;;;;;5.88;3.78;;;;;;;6.01;78.56;99553.72;4991116;28;20150;-79
2024/03/02 06:14:31;;;;;;;6.68;3.88;;;;;;;6.05;78.20;99546.41;4994798;28;20089;-79
2024/03/02 06:16:59;;;;;;;6.28;3.80;;;;;;;6.02;78.38;99542.25;4997915;28;20061;-78
2024/03/02 06:19:27;;;;;;;5.40;3.63;;;;;;;5.98;79.50;99553.16;4996803;28;20050;-78
2024/03/02 06:21:53;;;;;;;5.50;3.42;;;;;;;5.96;79.12;99555.91;4996558;28;20050;-79
2024/03/02 06:24:20;;;;;;;5.20;4.18;;;;;;;5.97;79.28;99565.44;4997883;28;20100;-79
2024/03/02 06:26:47;;;;;;;5.88;3.53;;;;;;;5.90;79.47;99573.97;4998640;28;20056;-80
2024/03/02 06:29:13;;;;;;;5.15;3.60;;;;;;;5.94;79.95;99583.25;4996795;28;20090;-79
2024/03/02 06:31:40;;;;;;;6.22;3.72;;;;;;;6.03;79.31;99570.19;4997217;28;20102;-78
2024/03/02 06:34:08;;;;;;;10.70;3.95;;;;;;;6.12;78.92;99575.59;4991196;28;20133;-78
2024/03/02 06:36:35;;;;;;;5.68;3.65;;;;;;;6.12;78.23;99572.97;4996992;28;20054;-79
2024/03/02 06:39:01;;;;;;;5.43;3.83;;;;;;;6.17;77.83;99579.50;4997020;28;20118;-80
2024/03/02 06:41:28;;;;;;;4.97;3.85;;;;;;;6.16;78.30;99577.88;4997302;28;20093;-79
2024/03/02 06:43:59;;;;;;;7.82;4.00;;;;;;;6.11;78.21;99582.66;4992475;28;20137;-78
2024/03/02 06:46:26;;;;;;;7.00;3.80;;;;;;;6.20;77.27;99591.53;4988917;28;20093;-82
2024/03/02 06:48:52;;;;;;;4.70;3.65;;;;;;;6.26;77.19;99580.53;4998129;28;20513;-80
2024/03/02 06:51:20;;;;;;;5.93;3.72;;;;;;;6.37;76.47;99583.03;4996633;28;20090;-78
2024/03/02 06:53:47;;;;;;;5.63;3.53;;;;;;;6.63;74.98;99577.31;4997250;28;20113;-76
2024/03/02 06:56:13;;;;;;;6.43;4.10;;;;;;;6.85;74.34;99577.06;4995349;28;20078;-78
2024/03/02 06:58:40;;;;;;;6.43;4.05;;;;;;;7.03;73.64;99585.94;4990319;28;20078;-80
2024/03/02 07:01:07;;;;;;;4.88;3.20;;;;;;;7.06;73.29;99587.50;4994289;28;20138;-79
2024/03/02 07:03:33;;;;;;;6.13;3.63;;;;;;;7.16;72.53;99596.22;4989949;28;20120;-77
2024/03/02 07:06:00;;;;;;;4.68;3.40;;;;;;;7.40;72.16;99595.78;4994766;28;20054;-77
2024/03/02 07:08:28;;;;;;;6.25;3.65;;;;;;;8.04;69.59;99589.88;4995166;28;20060;-79
2024/03/02 07:10:55;;;;;;;4.95;3.20;;;;;;;8.49;67.83;99596.25;4995241;28;20192;-80
2024/03/02 07:13:21;;;;;;;6.75;3.28;;;;;;;8.82;66.49;99603.53;4992532;28;20505;-79
2024/03/02 07:16:12;;;;;;;6.07;3.20;;;;;;;9.20;64.58;99601.63;4991574;28;20081;-78
2024/03/02 07:18:41;;;;;;;7.78;3.17;;;;;;;9.04;65.06;99594.38;4994565;28;20429;-78
2024/03/02 07:21:08;;;;;;;5.47;3.78;;;;;;;9.03;65.15;99590.09;4996345;28;20050;-80
2024/03/02 07:23:39;;;;;;;5.20;3.30;;;;;;;9.21;65.15;99602.47;4994873;28;20082;-78
2024/03/02 07:26:06;;;;;;;4.05;3.10;;;;;;;9.53;63.62;99605.38;4994173;28;20462;-80
2024/03/02 07:28:33;;;;;;;5.32;3.55;;;;;;;9.23;64.66;99605.75;4994617;28;20054;-77
2024/03/02 07:31:01;;;;;;;4.45;3.50;;;;;;;9.43;64.26;99599.34;4994584;28;20149;-79
2024/03/02 07:33:30;;;;;;;4.03;3.05;;;;;;;9.21;64.79;99603.28;4994732;28;20125;-79
2024/03/02 07:35:59;;;;;;;5.47;3.33;;;;;;;8.83;66.24;99612.28;4994810;28;20066;-77
2024/03/02 07:38:29;;;;;;;5.05;3.45;;;;;;;8.68;66.39;99613.78;5000451;28;20054;-79
2024/03/02 07:41:00;;;;;;;6.05;3.60;;;;;;;8.63;66.58;99608.09;5003381;28;20062;-81
2024/03/02 07:43:34;;;;;;;4.90;3.40;;;;;;;8.85;65.93;99600.63;5000219;28;20154;-79
2024/03/02 07:46:04;;;;;;;4.65;3.17;;;;;;;9.25;65.20;99590.63;4997139;28;20034;-84
2024/03/02 07:48:31;;;;;;;5.88;3.30;;;;;;;9.49;63.78;99590.00;4998490;28;20057;-83
2024/03/02 07:50:57;;;;;;;5.15;3.63;;;;;;;10.01;62.10;99596.16;4999362;28;20054;-79
2024/03/02 07:53:24;;;;;;;5.18;3.20;;;;;;;10.16;61.80;99600.84;4987209;28;20059;-80
2024/03/02 07:55:51;;;;;;;4.53;3.25;;;;;;;9.73;62.81;99602.53;4997930;28;20058;-79
2024/03/02 07:58:19;;;;;;;5.38;3.38;;;;;;;9.36;64.55;99607.03;4997158;28;20046;-78
2024/03/02 08:00:47;;;;;;;4.40;3.33;;;;;;;9.76;64.04;99628.66;4999234;28;20085;-82
2024/03/02 08:03:14;;;;;;;8.82;3.60;;;;;;;9.74;63.47;99620.09;4999344;28;20050;-80
2024/03/02 08:05:41;;;;;;;5.75;3.60;;;;;;;10.03;62.81;99623.25;4996667;28;20137;-78
2024/03/02 08:08:08;;;;;;;6.40;3.38;;;;;;;10.02;62.01;99626.88;4996833;28;20054;-80
2024/03/02 08:10:35;;;;;;;4.85;3.50;;;;;;;10.30;62.00;99621.44;4998583;28;20058;-81
2024/03/02 08:13:01;;;;;;;5.15;3.25;;;;;;;10.58;60.84;99617.63;4998315;28;20050;-80
2024/03/02 08:15:29;;;;;;;5.20;3.35;;;;;;;10.95;59.37;99620.91;4997985;28;20061;-79
2024/03/02 08:17:56;;;;;;;5.85;3.47;;;;;;;11.05;59.80;99622.41;4997004;28;20134;-80
2024/03/02 08:20:23;;;;;;;5.93;3.30;;;;;;;11.31;58.68;99640.84;4995586;28;20073;-80
2024/03/02 08:22:51;;;;;;;6.25;3.75;;;;;;;11.25;59.20;99638.84;4996215;28;20062;-79
2024/03/02 08:25:17;;;;;;;5.60;3.75;;;;;;;11.12;59.65;99636.66;4997184;28;20050;-78
2024/03/02 08:27:44;;;;;;;6.13;3.95;;;;;;;10.94;60.15;99641.25;4996851;28;20073;-81
2024/03/02 08:30:15;;;;;;;5.60;3.67;;;;;;;10.75;60.88;99631.72;4998324;28;20054;-80
2024/03/02 08:32:47;;;;;;;6.97;3.30;;;;;;;10.75;59.77;99630.91;4998212;28;20523;-80
2024/03/02 08:35:13;;;;;;;5.47;3.25;;;;;;;10.54;60.92;99629.53;4996779;28;20086;-80
2024/03/02 08:37:45;;;;;;;5.22;3.33;;;;;;;10.54;61.63;99639.28;4996498;28;20106;-81
2024/03/02 08:40:15;;;;;;;4.43;3.30;;;;;;;10.40;62.33;99630.09;4995953;28;20050;-79
2024/03/02 08:42:41;;;;;;;4.93;3.55;;;;;;;10.51;61.63;99627.19;4997432;28;20050;-80
2024/03/02 08:45:09;;;;;;;7.55;4.10;;;;;;;10.59;61.86;99623.75;4996888;28;20137;-80
2024/03/02 08:47:40;;;;;;;5.13;3.60;;;;;;;10.75;61.48;99621.16;4997446;28;20170;-80
2024/03/02 08:50:09;;;;;;;5.05;3.10;;;;;;;10.99;59.86;99615.13;4994740;28;20052;-79
2024/03/02 08:52:36;;;;;;;4.45;3.15;;;;;;;11.12;60.06;99618.13;4988183;28;20052;-78
2024/03/02 08:55:02;;;;;;;5.05;2.88;;;;;;;11.29;58.72;99626.91;4995067;28;20054;-79
2024/03/02 08:57:29;;;;;;;6.63;3.60;;;;;;;11.39;59.42;99624.13;4995056;28;20085;-78
2024/03/02 08:59:58;;;;;;;8.73;6.20;;;;;;;11.61;57.68;99625.31;4994770;28;20054;-80
2024/03/02 09:02:25;;;;;;;3.80;2.97;;;;;;;11.45;57.43;99623.47;4994868;28;20529;-79
2024/03/02 09:04:53;;;;;;;5.95;4.32;;;;;;;11.77;57.96;99632.41;4995781;28;20050;-80
2024/03/02 09:07:21;;;;;;;5.97;3.50;;;;;;;11.55;57.13;99633.91;4997001;28;20054;-81
2024/03/02 09:09:47;;;;;;;5.35;2.42;;;;;;;11.25;57.68;99638.84;4989218;28;20073;-80
2024/03/02 09:12:14;;;;;;;3.13;2.15;;;;;;;11.04;58.41;99641.09;4997119;28;20058;-78
2024/03/02 09:14:41;;;;;;;6.30;2.35;;;;;;;11.00;58.60;99650.34;4997103;28;20142;-79
2024/03/02 09:17:10;;;;;;;4.32;2.60;;;;;;;10.99;58.47;99646.88;4996543;28;20090;-80
2024/03/02 09:19:37;;;;;;;2.78;2.42;;;;;;;11.12;57.93;99647.25;4993664;28;20064;-79
2024/03/02 09:22:05;;;;;;;3.45;2.10;;;;;;;11.08;57.66;99637.97;4999803;28;20054;-79
2024/03/02 09:24:34;;;;;;;1.88;1.25;;;;;;;11.02;57.88;99641.25;5000192;28;20050;-79
2024/03/02 09:27:00;;;;;;;2.58;1.58;;;;;;;10.95;58.35;99644.72;4999796;28;20054;-79
2024/03/02 09:29:27;;;;;;;4.00;2.55;;;;;;;10.97;59.08;99640.91;4997600;28;20050;-79
2024/03/02 09:31:54;;;;;;;4.07;1.83;;;;;;;11.13;57.48;99630.38;4999994;28;20050;-79
2024/03/02 09:34:20;;;;;;;3.75;2.75;;;;;;;11.16;57.58;99621.25;5002239;28;20051;-79
2024/03/02 09:36:47;;;;;;;2.03;1.67;;;;;;;11.23;57.28;99629.38;5002628;28;20065;-81
2024/03/02 09:39:17;;;;;;;2.70;1.85;;;;;;;11.14;58.08;99621.44;4998604;28;20462;-81
2024/03/02 09:41:46;;;;;;;3.67;2.53;;;;;;;11.10;58.39;99620.09;5002024;28;20143;-79
2024/03/02 09:44:13;;;;;;;2.97;1.60;;;;;;;11.10;57.56;99627.22;5004126;28;20050;-79
2024/03/02 09:46:39;;;;;;;3.90;1.65;;;;;;;11.06;56.67;99623.22;5002524;28;20081;-79
2024/03/02 09:49:06;;;;;;;1.50;1.10;;;;;;;11.21;56.69;99626.09;4997494;28;20081;-78
2024/03/02 09:51:36;;;;;;;2.45;1.73;;;;;;;11.19;57.36;99626.22;5002038;28;20552;-78
2024/03/02 09:54:03;;;;;;;6.20;2.72;;;;;;;11.13;57.66;99630.38;5002270;28;20129;-78
2024/03/02 09:56:32;;;;;;;3.08;1.52;;;;;;;11.32;57.90;99620.47;5001483;28;20112;-78
2024/03/02 09:59:01;;;;;;;3.67;2.22;;;;;;;11.41;57.06;99624.78;5001173;28;20085;-81
2024/03/02 10:01:27;;;;;;;3.95;2.83;;;;;;;11.41;57.35;99622.13;5003659;28;20532;-77
2024/03/02 10:03:59;;;;;;;2.03;1.27;;;;;;;11.57;56.39;99632.75;5011533;28;20062;-83
2024/03/02 10:06:28;;;;;;;2.58;1.30;;;;;;;11.60;55.32;99624.44;5008256;28;20066;-83
2024/03/02 10:08:58;;;;;;;2.67;1.67;;;;;;;11.66;55.95;99617.69;5012625;28;20041;-82
2024/03/02 10:11:30;;;;;;;3.13;2.00;;;;;;;11.76;55.69;99617.50;5006315;28;20047;-79
2024/03/02 10:14:10;;;;;;;3.53;1.83;;;;;;;11.69;54.86;99627.09;5006283;28;20042;-80
2024/03/02 10:16:37;;;;;;;3.30;1.90;;;;;;;11.83;55.42;99619.34;4996181;28;20113;-79
2024/03/02 10:19:20;;;;;;;2.72;1.92;;;;;;;11.87;54.70;99625.13;4996903;28;20536;-79
2024/03/02 10:21:47;;;;;;;3.13;2.22;;;;;;;11.99;54.30;99615.84;5004075;28;20050;-79
2024/03/02 10:24:14;;;;;;;3.75;2.17;;;;;;;12.11;54.59;99613.69;5004868;28;20519;-81
2024/03/02 10:26:41;;;;;;;5.13;2.10;;;;;;;12.24;54.41;99613.97;5002175;28;20054;-78
2024/03/02 10:29:10;;;;;;;2.55;1.58;;;;;;;12.48;53.67;99615.72;5002390;28;20054;-78
2024/03/02 10:31:38;;;;;;;2.78;1.88;;;;;;;12.21;51.89;99608.19;5006737;28;20058;-78
2024/03/02 10:34:05;;;;;;;4.05;2.00;;;;;;;12.12;52.54;99600.25;5005916;28;20104;-78
2024/03/02 10:36:32;;;;;;;3.65;1.80;;;;;;;12.11;53.83;99598.59;4999943;28;20074;-80
2024/03/02 10:38:59;;;;;;;3.60;1.70;;;;;;;12.31;52.67;99606.16;5005133;28;20088;-81
2024/03/02 10:41:27;;;;;;;4.03;2.03;;;;;;;12.18;52.00;99589.94;5004297;28;20054;-81
2024/03/02 10:43:59;;;;;;;3.58;1.88;;;;;;;12.18;51.63;99597.91;4995857;28;20050;-79
2024/03/02 10:46:29;;;;;;;2.05;1.52;;;;;;;12.22;52.59;99588.59;4987010;28;20046;-78
2024/03/02 10:48:58;;;;;;;7.25;2.45;;;;;;;12.39;52.12;99590.22;4995681;28;20421;-79
2024/03/02 10:51:25;;;;;;;3.03;1.98;;;;;;;12.32;52.38;99583.94;4991367;28;20110;-79
2024/03/02 10:53:52;;;;;;;5.00;3.22;;;;;;;12.43;54.29;99580.91;5000124;28;20061;-78
2024/03/02 10:56:29;;;;;;;4.80;2.70;;;;;;;12.47;52.42;99582.22;5000982;28;20509;-80
2024/03/02 10:59:03;;;;;;;2.03;1.67;;;;;;;12.61;51.29;99578.84;5001768;28;20046;-81
2024/03/02 11:01:37;;;;;;;4.93;2.92;;;;;;;12.74;54.17;99577.47;5000243;28;20415;-80
2024/03/02 11:04:08;;;;;;;5.80;3.15;;;;;;;12.72;54.11;99574.13;5004522;28;20065;-80
2024/03/02 11:06:41;;;;;;;5.35;3.33;;;;;;;12.39;53.94;99580.44;5001404;28;20129;-80
2024/03/02 11:09:09;;;;;;;7.20;3.33;;;;;;;12.70;54.44;99574.31;4994636;28;20120;-80
2024/03/02 11:11:42;;;;;;;5.32;3.40;;;;;;;12.57;53.54;99579.38;4997929;28;20504;-79
2024/03/02 11:14:14;;;;;;;3.95;3.10;;;;;;;12.70;53.44;99573.50;5008798;28;20050;-80
2024/03/02 11:16:42;;;;;;;6.85;4.00;;;;;;;12.96;53.49;99571.34;5033207;23;20054;-83
2024/03/02 11:19:11;;;;;;;4.10;3.08;;;;;;;13.05;53.90;99577.44;5010866;28;20110;-84
2024/03/02 11:21:40;;;;;;;3.20;2.25;;;;;;;13.26;49.86;99567.03;5015429;28;20077;-84
2024/03/02 11:24:38;;;;;;;4.22;2.13;;;;;;;13.24;50.05;99568.22;5014911;28;20041;-82
2024/03/02 11:27:07;;;;;;;6.43;2.00;;;;;;;13.19;49.27;99582.00;5014705;28;20073;-83
2024/03/02 11:29:46;;;;;;;3.58;1.92;;;;;;;13.05;49.46;99580.09;5013745;28;20052;-83
2024/03/02 11:32:23;;;;;;;6.00;2.10;;;;;;;13.05;51.10;99572.97;5009442;28;20050;-83
2024/03/02 11:34:51;;;;;;;3.90;1.92;;;;;;;13.19;49.63;99574.03;5012643;28;20136;-82
2024/03/02 11:37:20;;;;;;;2.55;1.95;;;;;;;13.27;49.78;99573.19;5007128;28;20089;-80
2024/03/02 11:39:49;;;;;;;4.40;2.25;;;;;;;13.29;51.10;99565.84;5007080;28;20080;-80
2024/03/02 11:42:16;;;;;;;5.40;3.10;;;;;;;13.18;51.22;99558.28;5009064;28;20097;-83
2024/03/02 11:44:44;;;;;;;5.10;2.50;;;;;;;13.30;51.20;99562.19;5003923;28;20042;-82
2024/03/02 11:47:15;;;;;;;3.50;2.47;;;;;;;13.40;51.52;99579.53;5001121;28;20117;-83
2024/03/02 11:49:45;;;;;;;3.95;2.35;;;;;;;13.45;51.07;99567.56;5009804;28;20464;-83
2024/03/02 11:52:12;;;;;;;3.50;1.90;;;;;;;13.25;49.98;99568.03;5006193;28;20062;-83
2024/03/02 11:54:41;;;;;;;4.03;2.60;;;;;;;13.16;51.65;99563.75;4997738;28;20080;-82
2024/03/02 11:57:20;;;;;;;4.28;2.70;;;;;;;13.01;51.65;99571.66;4998332;28;20041;-83
2024/03/02 11:59:47;;;;;;;4.22;2.90;;;;;;;12.84;53.23;99570.91;4993872;28;20417;-81
2024/03/02 12:02:19;;;;;;;6.07;3.03;;;;;;;12.84;53.13;99556.81;4999852;28;20101;-82
2024/03/02 12:04:49;;;;;;;6.57;3.07;;;;;;;13.01;51.75;99555.72;4996253;28;20074;-82
2024/03/02 12:07:20;;;;;;;4.32;2.90;;;;;;;13.24;52.63;99552.28;4998967;28;20501;-82
2024/03/02 12:09:47;;;;;;;5.03;3.17;;;;;;;13.28;51.96;99532.31;4994943;28;20077;-81
2024/03/02 12:12:17;;;;;;;5.15;2.90;;;;;;;13.43;52.48;99546.47;4993099;28;20121;-80
2024/03/02 12:14:51;;;;;;;4.90;2.88;;;;;;;13.37;51.93;99540.03;4999535;28;20397;-81
2024/03/02 12:17:18;;;;;;;3.63;2.60;;;;;;;13.26;51.65;99536.97;5001290;28;20133;-80
2024/03/02 12:19:45;;;;;;;4.22;2.92;;;;;;;13.18;52.16;99529.03;5000028;28;20050;-81
2024/03/02 12:22:13;;;;;;;5.35;2.65;;;;;;;13.27;52.26;99517.38;4997973;28;20602;-82
2024/03/02 12:24:40;;;;;;;5.65;2.75;;;;;;;13.03;52.01;99519.16;4997087;28;20138;-83
2024/03/02 12:27:07;;;;;;;3.60;2.70;;;;;;;13.33;51.51;99519.31;5002636;28;20054;-82
2024/03/02 12:29:35;;;;;;;4.47;2.58;;;;;;;13.26;52.43;99519.22;5007011;28;20050;-83
2024/03/02 12:32:02;;;;;;;2.58;2.38;;;;;;;13.21;51.99;99508.25;5011739;28;20054;-82
2024/03/02 12:34:31;;;;;;;4.25;2.95;;;;;;;13.23;52.44;99508.94;5011979;28;20043;-83
2024/03/02 12:36:58;;;;;;;3.42;2.80;;;;;;;13.04;53.04;99512.88;5009376;28;20042;-84
2024/03/02 12:39:27;;;;;;;5.40;3.00;;;;;;;13.15;52.59;99504.47;4986256;28;20043;-84
2024/03/02 12:41:55;;;;;;;4.25;2.92;;;;;;;12.93;52.47;99515.94;4994673;28;20572;-84
2024/03/02 12:44:21;;;;;;;4.30;2.70;;;;;;;13.11;52.82;99510.31;4997001;28;20050;-83
2024/03/02 12:46:48;;;;;;;5.63;2.67;;;;;;;13.14;51.51;99516.13;5002862;28;20050;-84
2024/03/02 12:49:16;;;;;;;3.55;2.55;;;;;;;13.25;51.53;99508.75;4997480;28;20057;-84
2024/03/02 12:51:46;;;;;;;6.07;3.05;;;;;;;13.08;52.45;99514.19;5004256;28;20046;-84
2024/03/02 12:54:13;;;;;;;5.28;2.78;;;;;;;12.90;53.39;99500.34;5003404;28;20078;-85
2024/03/02 12:56:45;;;;;;;5.30;2.47;;;;;;;12.96;53.15;99504.97;5002476;28;20124;-83
2024/03/02 12:59:19;;;;;;;4.00;2.92;;;;;;;13.05;53.15;99493.28;5002643;28;20054;-85
2024/03/02 13:01:52;;;;;;;3.97;3.05;;;;;;;12.99;54.16;99506.41;5000907;28;20061;-85
2024/03/02 13:04:23;;;;;;;4.28;3.05;;;;;;;13.05;54.00;99501.25;5002216;28;20100;-84
2024/03/02 13:06:51;;;;;;;4.38;2.80;;;;;;;12.96;53.57;99499.66;5001765;28;20121;-83
2024/03/02 13:09:18;;;;;;;3.35;2.55;;;;;;;12.99;54.06;99495.81;5001664;28;20077;-85
2024/03/02 13:11:46;;;;;;;6.57;2.97;;;;;;;13.05;53.89;99497.75;5002878;28;20128;-83
2024/03/02 13:14:13;;;;;;;3.53;2.80;;;;;;;13.44;53.44;99489.66;5001577;28;20065;-86
2024/03/02 13:16:40;;;;;;;5.43;2.95;;;;;;;13.54;52.60;99498.19;5003478;28;20134;-83
2024/03/02 13:19:08;;;;;;;5.93;3.13;;;;;;;13.63;52.05;99498.94;5005479;28;20050;-85
2024/03/02 13:21:35;;;;;;;3.92;3.03;;;;;;;13.43;52.47;99498.63;5006070;28;20516;-83
2024/03/02 13:24:03;;;;;;;4.70;3.13;;;;;;;13.38;52.60;99490.38;5005790;28;20082;-84
2024/03/02 13:26:30;;;;;;;4.82;2.90;;;;;;;13.35;52.38;99485.44;5005945;28;20050;-85
2024/03/02 13:28:58;;;;;;;4.18;2.55;;;;;;;13.19;53.09;99491.66;5005902;28;20058;-84
2024/03/02 13:31:24;;;;;;;3.80;2.92;;;;;;;13.07;53.12;99488.59;4999538;28;20462;-85
2024/03/02 13:33:51;;;;;;;3.58;2.65;;;;;;;13.13;53.90;99482.59;5006589;28;20050;-84
2024/03/02 13:36:19;;;;;;;4.68;2.60;;;;;;;12.99;54.45;99490.50;5007286;28;20047;-84
2024/03/02 13:38:46;;;;;;;4.13;2.90;;;;;;;12.94;54.30;99487.53;5007052;28;20445;-84
2024/03/02 13:41:12;;;;;;;3.00;2.63;;;;;;;12.86;54.45;99483.13;5006009;28;20050;-80
2024/03/02 13:43:39;;;;;;;4.55;2.70;;;;;;;12.87;54.35;99477.63;5003157;28;20528;-81
2024/03/02 13:46:07;;;;;;;3.72;2.78;;;;;;;12.93;54.45;99470.78;5001408;28;20054;-81
2024/03/02 13:48:34;;;;;;;3.47;2.33;;;;;;;12.86;53.81;99469.88;5001882;28;20116;-83
2024/03/02 13:51:01;;;;;;;3.42;2.80;;;;;;;13.02;54.03;99485.66;5010158;28;20100;-84
2024/03/02 13:53:28;;;;;;;4.35;2.35;;;;;;;13.14;54.59;99462.97;5005112;28;20058;-85
2024/03/02 13:55:55;;;;;;;2.60;2.40;;;;;;;13.19;53.84;99456.31;5005506;28;20056;-84
2024/03/02 13:58:21;;;;;;;2.88;2.60;;;;;;;13.25;53.61;99463.56;5004509;28;20567;-85
2024/03/02 14:00:48;;;;;;;3.00;2.67;;;;;;;13.25;52.76;99452.94;5005303;28;20489;-83
2024/03/02 14:03:16;;;;;;;3.40;2.60;;;;;;;13.11;53.31;99463.34;5008886;28;20050;-82
2024/03/02 14:05:46;;;;;;;3.45;2.60;;;;;;;13.24;52.96;99448.66;5009778;28;20077;-85
2024/03/02 14:08:13;;;;;;;3.67;2.53;;;;;;;13.24;52.66;99451.31;5008306;28;20051;-85
2024/03/02 14:10:40;;;;;;;3.45;2.50;;;;;;;13.26;53.23;99450.13;5005139;28;20065;-83
2024/03/02 14:13:07;;;;;;;4.07;2.33;;;;;;;13.30;53.12;99447.91;5003716;28;20050;-84
2024/03/02 14:15:33;;;;;;;3.75;2.65;;;;;;;13.31;52.59;99445.09;5002263;28;20102;-83
2024/03/02 14:18:00;;;;;;;2.90;2.30;;;;;;;13.47;53.01;99440.63;5008278;28;20070;-83
2024/03/02 14:20:28;;;;;;;3.63;2.35;;;;;;;13.70;52.88;99445.84;5006021;28;20057;-83
2024/03/02 14:22:54;;;;;;;3.55;2.60;;;;;;;13.84;52.54;99437.03;5009833;28;20085;-81
2024/03/02 14:25:21;;;;;;;3.10;2.58;;;;;;;14.05;52.27;99437.09;5011352;28;20057;-83
2024/03/02 14:27:48;;;;;;;4.60;2.75;;;;;;;13.87;51.31;99442.81;5008943;28;20078;-85
2024/03/02 14:30:15;;;;;;;3.35;2.50;;;;;;;13.86;51.15;99435.84;5012739;28;20046;-82
2024/03/02 14:32:42;;;;;;;4.38;2.20;;;;;;;13.87;51.09;99442.81;5012665;28;20050;-84
2024/03/02 14:35:11;;;;;;;5.68;2.90;;;;;;;13.72;50.69;99436.69;5013899;28;20057;-84
2024/03/02 14:37:39;;;;;;;3.72;2.88;;;;;;;13.59;51.59;99440.00;5017132;28;20057;-84
2024/03/02 14:40:09;;;;;;;4.30;2.60;;;;;;;13.51;52.04;99433.94;5017437;28;20078;-82
2024/03/02 14:42:36;;;;;;;4.65;2.88;;;;;;;13.49;51.74;99422.66;5009731;28;20057;-82
2024/03/02 14:45:04;;;;;;;3.03;2.60;;;;;;;13.43;52.47;99424.19;5005607;28;20050;-83
2024/03/02 14:47:33;;;;;;;3.38;2.53;;;;;;;13.48;51.67;99423.66;5004405;28;20054;-83